Miami, FL

9:54 AM EDT on August 27, 2016 (GMT -0400)
Kendall-Tamiami Executive | | Change Station

Elev 10 ft 25.64 °N, 80.43 °W | Updated 50 minutes ago

Mostly Cloudy
Mostly Cloudy
81 °F
Feels Like 90 °F
N
5
Wind Variable Wind from North

Today
High -- | Low -- °F
--% Chance of Precip.
Yesterday
High -- | Low -- °F
Precip. -- in
Pressure 29.91 in
Visibility 10.0 miles
Clouds Few 3600 ft
Scattered Clouds 6000 ft
Mostly Cloudy 12000 ft
Heat Index 90 °F
Dew Point 80 °F
Humidity 97%
Rainfall 0.00 in
Snow Depth Not available.
7:00 AM 7:45 PM
Waning Crescent, 24% visible
SPECI KTMB 271304Z 01004KT 10SM FEW036 SCT060 BKN120 27/27 A2991 RMK AO2 LTG DSNT E-S RAE01 P0000 T02720267 $
Pressure 29.91 in
Visibility 10.0 miles
Clouds Few 3600 ft
Scattered Clouds 6000 ft
Mostly Cloudy 12000 ft
Heat Index 90 °F
Dew Point 80 °F
Humidity 97%
Rainfall 0.00 in
Snow Depth Not available.
7:00 AM 7:45 PM
Waning Crescent, 24% visible
SPECI KTMB 271304Z 01004KT 10SM FEW036 SCT060 BKN120 27/27 A2991 RMK AO2 LTG DSNT E-S RAE01 P0000 T02720267 $

10-Day Weather Forecast

Almanac

Astronomy

Aug. 27, 2016 Rise Set
Actual Time
Civil Twilight
Nautical Twilight
Astronomical Twilight
Moon
Length of Visible Light
Length of Day
Tomorrow will be .
, % of the Moon is Illuminated

Today's Extremes

State Highs State Lows

Community

WunderPhotos

Upload Photos

1,935,339 photos uploaded!

WunderBlog® & News

Nearby

Air Quality

  Air Quality AQ Index Pollutant
Not available.

Snow Depth

Station Depth Elevation

Earthquake Activity

City Distance Mag. Time & Date
Minimum magnitude displayed is 2.5.

Coastal Water Temperatures

Place Temperature

Stations

Nearby Weather Stations

Station Location Temp. Windchill Dew Point Humidity Wind Precip. Elev Updated Type
                   

Watches & Warnings

There are currently no watches in effect.